createdAt,value
2023-10-30T00:00:50.317Z,99.99
2023-10-30T00:01:50.134Z,99.99
2023-10-30T00:02:50.224Z,99.99
2023-10-30T00:03:50.176Z,99.99
2023-10-30T00:04:52.281Z,99.99
2023-10-30T00:05:50.082Z,99.99
2023-10-30T00:06:50.063Z,99.99
2023-10-30T00:07:50.066Z,99.99
2023-10-30T00:08:50.063Z,99.99
2023-10-30T00:09:50.148Z,99.99
2023-10-30T00:10:50.047Z,99.99
2023-10-30T00:11:50.019Z,99.99
2023-10-30T00:12:50.008Z,99.99
2023-10-30T00:13:50.010Z,99.99
2023-10-30T00:14:49.989Z,99.99
2023-10-30T00:15:49.972Z,99.99
2023-10-30T00:16:50.018Z,99.99
2023-10-30T00:17:49.980Z,99.99
2023-10-30T00:18:49.956Z,99.99
2023-10-30T00:19:50.012Z,99.99
2023-10-30T00:20:49.928Z,99.99
2023-10-30T00:21:49.936Z,99.99
2023-10-30T00:22:49.892Z,99.99
2023-10-30T00:23:49.898Z,99.99
2023-10-30T00:24:49.887Z,99.99
2023-10-30T00:25:49.886Z,99.99
2023-10-30T00:26:49.858Z,99.99
2023-10-30T00:27:49.903Z,99.99
2023-10-30T00:28:49.829Z,99.99
2023-10-30T00:29:50.036Z,99.99
2023-10-30T00:30:49.882Z,99.99
2023-10-30T00:31:49.793Z,99.99
2023-10-30T00:32:49.852Z,99.99
2023-10-30T00:33:49.791Z,99.99
2023-10-30T00:34:49.768Z,99.99
2023-10-30T00:35:49.756Z,99.99
2023-10-30T00:36:49.751Z,99.99
2023-10-30T00:37:49.736Z,99.99
2023-10-30T00:38:49.747Z,99.99
2023-10-30T00:39:49.891Z,99.99
2023-10-30T00:40:49.697Z,99.99
2023-10-30T00:41:49.690Z,99.99
2023-10-30T00:42:49.680Z,99.99
2023-10-30T00:43:49.673Z,99.99
2023-10-30T00:44:49.680Z,99.99
2023-10-30T00:45:49.640Z,99.99
2023-10-30T00:46:49.647Z,99.99
2023-10-30T00:47:49.674Z,99.99
2023-10-30T00:48:49.622Z,99.99
2023-10-30T00:49:49.774Z,99.99
2023-10-30T00:50:49.625Z,99.99
2023-10-30T00:51:49.584Z,99.99
2023-10-30T00:52:49.578Z,99.99
2023-10-30T00:53:49.558Z,99.75
2023-10-30T00:54:49.542Z,99.85
2023-10-30T00:55:49.572Z,99.85
2023-10-30T00:56:49.524Z,99.85
2023-10-30T00:57:49.535Z,99.75
2023-10-30T00:58:49.508Z,99.75
2023-10-30T00:59:49.663Z,99.65
2023-10-30T01:00:49.522Z,99.85
2023-10-30T01:01:49.540Z,99.75
2023-10-30T01:02:49.583Z,99.95
2023-10-30T01:03:49.593Z,99.95
2023-10-30T01:04:49.647Z,99.85
2023-10-30T01:05:49.438Z,99.99
2023-10-30T01:06:49.412Z,99.99
2023-10-30T01:07:49.431Z,99.99
2023-10-30T01:08:49.405Z,99.99
2023-10-30T01:09:49.481Z,99.99
2023-10-30T01:10:49.370Z,99.75
2023-10-30T01:11:49.360Z,99.99
2023-10-30T01:12:49.393Z,99.99
2023-10-30T01:13:49.369Z,99.99
2023-10-30T01:14:49.345Z,99.99
2023-10-30T01:15:49.351Z,99.99
2023-10-30T01:16:49.312Z,99.99
2023-10-30T01:17:49.321Z,99.65
2023-10-30T01:18:49.321Z,99.75
2023-10-30T01:19:49.529Z,99.65
2023-10-30T01:20:49.266Z,99.75
2023-10-30T01:21:49.266Z,99.54
2023-10-30T01:22:49.240Z,99.54
2023-10-30T01:23:49.295Z,99.65
2023-10-30T01:24:49.236Z,99.85
2023-10-30T01:25:49.224Z,99.95
2023-10-30T01:26:49.231Z,99.95
2023-10-30T01:27:49.190Z,99.75
2023-10-30T01:28:49.173Z,99.75
2023-10-30T01:29:49.379Z,99.54
2023-10-30T01:30:49.173Z,99.65
2023-10-30T01:31:49.148Z,99.54
2023-10-30T01:32:49.194Z,99.75
2023-10-30T01:33:49.194Z,99.54
2023-10-30T01:34:49.120Z,99.65
2023-10-30T01:35:49.133Z,99.54
2023-10-30T01:36:49.103Z,99.54
2023-10-30T01:37:49.092Z,99.54
2023-10-30T01:38:49.064Z,99.75
2023-10-30T01:39:49.258Z,99.85
2023-10-30T01:40:49.067Z,99.65
2023-10-30T01:41:49.062Z,99.79
2023-10-30T01:42:49.051Z,99.85
2023-10-30T01:43:49.016Z,99.99
2023-10-30T01:44:49.010Z,99.99
2023-10-30T01:45:49.031Z,99.99
2023-10-30T01:46:49.136Z,99.99
2023-10-30T01:47:49.058Z,99.99
2023-10-30T01:48:49.038Z,99.99
2023-10-30T01:49:49.077Z,99.99
2023-10-30T01:50:48.942Z,99.99
2023-10-30T01:51:48.943Z,99.99
2023-10-30T01:52:48.948Z,99.99
2023-10-30T01:53:48.933Z,99.99
2023-10-30T01:54:48.905Z,99.99
2023-10-30T01:55:48.887Z,99.99
2023-10-30T01:56:48.884Z,99.99
2023-10-30T01:57:48.876Z,99.99
2023-10-30T01:58:48.880Z,99.99
2023-10-30T01:59:49.029Z,99.99
2023-10-30T02:00:48.943Z,99.99
2023-10-30T02:01:48.823Z,99.99
2023-10-30T02:02:48.895Z,99.99
2023-10-30T02:03:48.929Z,99.99
2023-10-30T02:04:48.808Z,99.99
2023-10-30T02:05:48.793Z,99.99
2023-10-30T02:06:48.765Z,99.99
2023-10-30T02:07:48.771Z,99.99
2023-10-30T02:08:48.770Z,99.99
2023-10-30T02:09:48.969Z,99.99
2023-10-30T02:10:48.750Z,99.99
2023-10-30T02:11:48.716Z,99.99
2023-10-30T02:12:48.706Z,99.99
2023-10-30T02:13:48.693Z,99.99
2023-10-30T02:14:48.686Z,99.99
2023-10-30T02:15:48.779Z,99.99
2023-10-30T02:16:48.686Z,99.99
2023-10-30T02:17:48.671Z,99.99
2023-10-30T02:18:48.637Z,99.99
2023-10-30T02:19:48.826Z,99.99
2023-10-30T02:20:48.626Z,99.99
2023-10-30T02:21:48.658Z,99.99
2023-10-30T02:22:48.594Z,99.99
2023-10-30T02:23:48.590Z,99.99
2023-10-30T02:24:48.587Z,99.99
2023-10-30T02:25:48.582Z,99.99
2023-10-30T02:26:48.580Z,99.99
2023-10-30T02:27:48.594Z,99.99
2023-10-30T02:28:48.524Z,99.99
2023-10-30T02:29:48.694Z,99.99
2023-10-30T02:30:48.509Z,99.99
2023-10-30T02:31:48.501Z,99.99
2023-10-30T02:32:48.583Z,99.99
2023-10-30T02:33:48.532Z,99.99
2023-10-30T02:34:48.475Z,99.99
2023-10-30T02:35:48.464Z,99.99
2023-10-30T02:36:48.456Z,99.99
2023-10-30T02:37:48.449Z,99.99
2023-10-30T02:38:48.440Z,99.99
2023-10-30T02:39:48.641Z,99.99
2023-10-30T02:40:48.397Z,99.99
2023-10-30T02:41:48.395Z,99.99
2023-10-30T02:42:48.427Z,99.99
2023-10-30T02:43:48.384Z,99.99
2023-10-30T02:44:48.369Z,99.99
2023-10-30T02:45:48.428Z,99.99
2023-10-30T02:46:48.338Z,99.99
2023-10-30T02:47:48.417Z,99.99
2023-10-30T02:48:48.309Z,99.99
2023-10-30T02:49:48.473Z,99.99
2023-10-30T02:50:48.312Z,99.99
2023-10-30T02:51:48.293Z,99.99
2023-10-30T02:52:48.263Z,99.99
2023-10-30T02:53:48.267Z,99.99
2023-10-30T02:54:48.309Z,99.99
2023-10-30T02:55:48.265Z,99.99
2023-10-30T02:56:48.224Z,99.99
2023-10-30T02:57:48.215Z,99.99
2023-10-30T02:58:48.203Z,99.99
2023-10-30T02:59:48.403Z,99.99
2023-10-30T03:00:48.192Z,99.99
2023-10-30T03:01:48.192Z,99.99
2023-10-30T03:02:48.230Z,99.99
2023-10-30T03:03:48.307Z,99.99
2023-10-30T03:04:48.179Z,99.99
2023-10-30T03:05:48.126Z,99.99
2023-10-30T03:06:48.171Z,99.99
2023-10-30T03:07:48.134Z,99.99
2023-10-30T03:08:48.103Z,99.99
2023-10-30T03:09:48.330Z,99.99
2023-10-30T03:10:48.088Z,99.99
2023-10-30T03:11:48.090Z,99.99
2023-10-30T03:12:48.084Z,99.99
2023-10-30T03:13:48.039Z,99.99
2023-10-30T03:14:48.052Z,99.99
2023-10-30T03:15:48.096Z,99.99
2023-10-30T03:16:48.023Z,99.99
2023-10-30T03:17:48.014Z,99.99
2023-10-30T03:18:48.065Z,99.99
2023-10-30T03:19:48.107Z,99.99
2023-10-30T03:20:47.973Z,99.99
2023-10-30T03:21:47.976Z,99.99
2023-10-30T03:22:47.965Z,99.99
2023-10-30T03:23:47.932Z,99.99
2023-10-30T03:24:48.022Z,99.99
2023-10-30T03:25:47.910Z,99.99
2023-10-30T03:26:47.900Z,99.99
2023-10-30T03:27:47.962Z,99.99
2023-10-30T03:28:47.887Z,99.99
2023-10-30T03:29:48.076Z,99.99
2023-10-30T03:30:47.873Z,99.99
2023-10-30T03:31:47.892Z,99.99
2023-10-30T03:32:47.913Z,99.99
2023-10-30T03:33:47.871Z,99.99
2023-10-30T03:34:47.876Z,99.99
2023-10-30T03:35:47.829Z,99.99
2023-10-30T03:36:47.820Z,99.99
2023-10-30T03:37:47.799Z,99.99
2023-10-30T03:38:47.796Z,99.99
2023-10-30T03:39:47.972Z,99.99
2023-10-30T03:40:47.754Z,99.99
2023-10-30T03:41:47.758Z,99.99
2023-10-30T03:42:47.827Z,99.99
2023-10-30T03:43:47.746Z,99.99
2023-10-30T03:44:47.716Z,99.99
2023-10-30T03:45:47.731Z,99.99
2023-10-30T03:46:47.727Z,99.99
2023-10-30T03:47:47.694Z,99.99
2023-10-30T03:48:47.760Z,99.99
2023-10-30T03:49:47.920Z,99.99
2023-10-30T03:50:47.658Z,99.99
2023-10-30T03:51:47.677Z,99.99
2023-10-30T03:52:47.647Z,99.99
2023-10-30T03:53:47.613Z,99.99
2023-10-30T03:54:47.644Z,99.99
2023-10-30T03:55:47.597Z,99.99
2023-10-30T03:56:47.602Z,99.99
2023-10-30T03:57:47.604Z,99.99
2023-10-30T03:58:47.567Z,99.99
2023-10-30T03:59:47.802Z,99.99
2023-10-30T04:00:47.593Z,99.99
2023-10-30T04:01:47.600Z,99.99
2023-10-30T04:02:47.568Z,99.99
2023-10-30T04:03:47.570Z,99.99
2023-10-30T04:04:47.490Z,99.99
2023-10-30T04:05:47.483Z,99.99
2023-10-30T04:06:47.491Z,99.99
2023-10-30T04:07:47.473Z,99.99
2023-10-30T04:08:47.447Z,99.99
2023-10-30T04:09:47.679Z,99.99
2023-10-30T04:10:47.427Z,99.99
2023-10-30T04:11:47.425Z,99.99
2023-10-30T04:12:47.527Z,99.99
2023-10-30T04:13:47.411Z,99.99
2023-10-30T04:14:47.376Z,99.99
2023-10-30T04:15:47.421Z,99.99
2023-10-30T04:16:47.374Z,99.99
2023-10-30T04:17:47.587Z,99.99
2023-10-30T04:18:47.382Z,99.99
2023-10-30T04:19:47.557Z,99.99
2023-10-30T04:20:47.329Z,99.99
2023-10-30T04:21:47.390Z,99.99
2023-10-30T04:22:47.300Z,99.99
2023-10-30T04:23:47.290Z,99.99
2023-10-30T04:24:47.333Z,99.99
2023-10-30T04:25:47.275Z,99.99
2023-10-30T04:26:47.327Z,99.99
2023-10-30T04:27:47.297Z,99.99
2023-10-30T04:28:47.231Z,99.99
2023-10-30T04:29:47.345Z,99.99
2023-10-30T04:30:47.359Z,99.99
2023-10-30T04:31:47.226Z,99.99
2023-10-30T04:32:47.220Z,99.99
2023-10-30T04:33:47.202Z,99.99
2023-10-30T04:34:47.181Z,99.99
2023-10-30T04:35:47.206Z,99.99
2023-10-30T04:36:47.210Z,99.99
2023-10-30T04:37:47.145Z,99.99
2023-10-30T04:38:47.144Z,99.99
2023-10-30T04:39:47.273Z,99.99
2023-10-30T04:40:47.157Z,99.99
2023-10-30T04:41:47.110Z,99.99
2023-10-30T04:42:47.141Z,99.99
2023-10-30T04:43:47.080Z,99.99
2023-10-30T04:44:47.063Z,99.99
2023-10-30T04:45:47.124Z,99.99
2023-10-30T04:46:47.043Z,99.99
2023-10-30T04:47:47.069Z,99.99
2023-10-30T04:48:47.031Z,99.99
2023-10-30T04:49:47.236Z,99.99
2023-10-30T04:50:47.021Z,99.99
2023-10-30T04:51:47.016Z,99.99
2023-10-30T04:52:47.011Z,99.99
2023-10-30T04:53:46.973Z,99.99
2023-10-30T04:54:47.015Z,99.99
2023-10-30T04:55:46.966Z,99.99
2023-10-30T04:56:46.943Z,99.99
2023-10-30T04:57:46.934Z,99.99
2023-10-30T04:58:46.923Z,99.99
2023-10-30T04:59:46.972Z,99.99
2023-10-30T05:00:46.966Z,99.99
2023-10-30T05:01:46.940Z,99.99
2023-10-30T05:02:46.885Z,99.99
2023-10-30T05:03:46.905Z,99.99
2023-10-30T05:04:46.877Z,99.99
2023-10-30T05:05:46.858Z,99.99
2023-10-30T05:06:46.852Z,99.99
2023-10-30T05:07:48.475Z,99.99
2023-10-30T05:08:46.810Z,99.99
2023-10-30T05:09:46.876Z,99.99
2023-10-30T05:10:46.795Z,99.99
2023-10-30T05:11:46.777Z,99.99
2023-10-30T05:12:46.795Z,99.99
2023-10-30T05:13:46.747Z,99.99
2023-10-30T05:14:46.741Z,99.99
2023-10-30T05:15:46.809Z,99.99
2023-10-30T05:16:46.731Z,99.99
2023-10-30T05:17:46.745Z,99.99
2023-10-30T05:18:46.730Z,99.99
2023-10-30T05:19:46.700Z,99.99
2023-10-30T05:20:46.721Z,99.99
2023-10-30T05:21:46.708Z,99.99
2023-10-30T05:22:46.665Z,99.99
2023-10-30T05:23:46.639Z,99.99
2023-10-30T05:24:46.656Z,99.99
2023-10-30T05:25:46.639Z,99.99
2023-10-30T05:26:46.627Z,99.99
2023-10-30T05:27:46.707Z,99.99
2023-10-30T05:28:46.603Z,99.99
2023-10-30T05:29:46.581Z,99.99
2023-10-30T05:30:46.667Z,99.99
2023-10-30T05:31:46.629Z,99.99
2023-10-30T05:32:46.597Z,99.99
2023-10-30T05:33:46.587Z,99.99
2023-10-30T05:34:46.526Z,99.99
2023-10-30T05:35:46.538Z,99.99
2023-10-30T05:36:46.509Z,99.99
2023-10-30T05:37:46.515Z,99.99
2023-10-30T05:38:46.473Z,99.99
2023-10-30T05:39:46.600Z,99.99
2023-10-30T05:40:46.487Z,99.99
2023-10-30T05:41:46.460Z,99.99
2023-10-30T05:42:46.461Z,99.99
2023-10-30T05:43:46.428Z,99.99
2023-10-30T05:44:46.431Z,99.99
2023-10-30T05:45:46.476Z,99.99
2023-10-30T05:46:46.420Z,99.99
2023-10-30T05:47:46.448Z,99.99
2023-10-30T05:48:46.423Z,99.99
2023-10-30T05:49:46.385Z,99.99
2023-10-30T05:50:46.362Z,99.99
2023-10-30T05:51:46.387Z,99.99
2023-10-30T05:52:46.351Z,99.99
2023-10-30T05:53:46.309Z,99.99
2023-10-30T05:54:46.375Z,99.99
2023-10-30T05:55:46.309Z,99.99
2023-10-30T05:56:46.310Z,99.99
2023-10-30T05:57:46.407Z,99.99
2023-10-30T05:58:46.304Z,99.99
2023-10-30T05:59:46.268Z,99.99
2023-10-30T06:00:46.316Z,99.99
2023-10-30T06:01:46.250Z,99.99
2023-10-30T06:02:46.269Z,99.99
2023-10-30T06:03:46.281Z,99.99
2023-10-30T06:04:46.201Z,99.99
2023-10-30T06:05:46.230Z,99.99
2023-10-30T06:06:46.207Z,99.99
2023-10-30T06:07:46.175Z,99.99
2023-10-30T06:08:46.155Z,99.99
2023-10-30T06:09:46.184Z,99.99
2023-10-30T06:10:46.165Z,99.99
2023-10-30T06:11:46.128Z,99.99
2023-10-30T06:12:46.143Z,99.99
2023-10-30T06:13:46.119Z,99.99
2023-10-30T06:14:46.123Z,99.99
2023-10-30T06:15:46.153Z,99.99
2023-10-30T06:16:46.085Z,99.99
2023-10-30T06:17:46.086Z,99.99
2023-10-30T06:18:46.097Z,99.99
2023-10-30T06:19:46.059Z,99.99
2023-10-30T06:20:46.058Z,99.99
2023-10-30T06:21:46.130Z,99.99
2023-10-30T06:22:46.027Z,99.99
2023-10-30T06:23:46.018Z,99.99
2023-10-30T06:24:46.034Z,99.99
2023-10-30T06:25:46.004Z,99.99
2023-10-30T06:26:46.068Z,99.99
2023-10-30T06:27:46.036Z,99.99
2023-10-30T06:28:45.975Z,99.99
2023-10-30T06:29:46.070Z,99.99
2023-10-30T06:30:45.976Z,99.99
2023-10-30T06:31:45.914Z,99.99
2023-10-30T06:32:45.986Z,99.99
2023-10-30T06:33:45.969Z,99.99
2023-10-30T06:34:45.889Z,99.99
2023-10-30T06:35:45.966Z,99.99
2023-10-30T06:36:45.922Z,99.99
2023-10-30T06:37:45.852Z,99.99
2023-10-30T06:38:45.896Z,99.99
2023-10-30T06:39:45.911Z,99.99
2023-10-30T06:40:45.828Z,99.99
2023-10-30T06:41:45.930Z,99.99
2023-10-30T06:42:45.923Z,99.99
2023-10-30T06:43:45.794Z,99.99
2023-10-30T06:44:45.923Z,99.99
2023-10-30T06:45:45.804Z,99.99
2023-10-30T06:46:45.849Z,99.99
2023-10-30T06:47:45.804Z,99.99
2023-10-30T06:48:45.862Z,99.99
2023-10-30T06:49:45.756Z,99.99
2023-10-30T06:50:45.723Z,99.99
2023-10-30T06:51:45.796Z,99.99
2023-10-30T06:52:45.791Z,99.99
2023-10-30T06:53:45.675Z,99.99
2023-10-30T06:54:45.738Z,99.99
2023-10-30T06:55:45.751Z,99.99
2023-10-30T06:56:45.645Z,99.99
2023-10-30T06:57:45.684Z,99.99
2023-10-30T06:58:45.708Z,99.99
2023-10-30T06:59:45.630Z,99.99
2023-10-30T07:00:45.729Z,99.99
2023-10-30T07:01:45.626Z,99.99
2023-10-30T07:02:45.783Z,99.99
2023-10-30T07:03:45.683Z,99.99
2023-10-30T07:04:45.602Z,99.99
2023-10-30T07:05:45.550Z,99.99
2023-10-30T07:06:45.559Z,99.99
2023-10-30T07:07:45.524Z,99.99
2023-10-30T07:08:45.532Z,99.99
2023-10-30T07:09:45.552Z,99.99
2023-10-30T07:10:45.531Z,99.99
2023-10-30T07:11:45.484Z,99.99
2023-10-30T07:12:45.527Z,99.99
2023-10-30T07:13:45.463Z,99.99
2023-10-30T07:14:45.446Z,99.99
2023-10-30T07:15:45.490Z,99.99
2023-10-30T07:17:00.699Z,99.99
2023-10-30T07:17:45.477Z,99.99
2023-10-30T07:18:45.482Z,99.99
2023-10-30T07:19:45.404Z,99.99
2023-10-30T07:20:45.391Z,99.99
2023-10-30T07:21:46.853Z,99.99
2023-10-30T07:22:45.364Z,99.99
2023-10-30T07:23:45.387Z,99.99
2023-10-30T07:24:45.530Z,99.99
2023-10-30T07:25:45.345Z,99.99
2023-10-30T07:26:45.322Z,99.99
2023-10-30T07:27:45.441Z,99.99
2023-10-30T07:28:45.351Z,99.99
2023-10-30T07:29:45.308Z,99.99
2023-10-30T07:30:45.440Z,99.99
2023-10-30T07:31:45.346Z,99.99
2023-10-30T07:32:45.336Z,99.99
2023-10-30T07:33:45.416Z,99.99
2023-10-30T07:34:45.256Z,99.99
2023-10-30T07:35:45.231Z,99.99
2023-10-30T07:36:45.340Z,99.99
2023-10-30T07:37:45.211Z,99.99
2023-10-30T07:38:45.219Z,99.99
2023-10-30T07:39:45.235Z,99.99
2023-10-30T07:40:45.196Z,99.99
2023-10-30T07:41:45.164Z,99.99
2023-10-30T07:42:45.221Z,99.99
2023-10-30T07:43:45.151Z,99.99
2023-10-30T07:44:45.146Z,99.99
2023-10-30T07:45:45.272Z,99.99
2023-10-30T07:46:45.283Z,99.99
2023-10-30T07:47:45.235Z,99.99
2023-10-30T07:48:45.107Z,99.99
2023-10-30T07:49:45.764Z,99.99
2023-10-30T07:50:45.068Z,99.99
2023-10-30T07:51:45.133Z,99.99
2023-10-30T07:52:45.037Z,99.99
2023-10-30T07:53:45.045Z,99.99
2023-10-30T07:54:45.072Z,99.99
2023-10-30T07:55:45.012Z,99.99
2023-10-30T07:56:44.997Z,99.99
2023-10-30T07:57:45.041Z,99.99
2023-10-30T07:58:44.985Z,99.99
2023-10-30T07:59:44.969Z,99.99
2023-10-30T08:00:57.906Z,99.99
2023-10-30T08:01:44.992Z,99.99
2023-10-30T08:02:44.976Z,99.99
2023-10-30T08:03:45.007Z,99.99
2023-10-30T08:04:44.917Z,99.99
2023-10-30T08:05:44.910Z,99.99
2023-10-30T08:06:44.946Z,99.99
2023-10-30T08:07:44.890Z,99.99
2023-10-30T08:08:44.874Z,99.99
2023-10-30T08:09:44.976Z,99.99
2023-10-30T08:10:44.859Z,99.99
2023-10-30T08:11:44.843Z,99.99
2023-10-30T08:12:44.886Z,99.99
2023-10-30T08:13:44.847Z,99.99
2023-10-30T08:14:44.804Z,99.99
2023-10-30T08:15:44.917Z,99.99
2023-10-30T08:16:44.840Z,99.99
2023-10-30T08:17:44.802Z,99.99
2023-10-30T08:18:44.773Z,99.99
2023-10-30T08:19:44.757Z,99.99
2023-10-30T08:20:44.767Z,99.99
2023-10-30T08:21:44.792Z,99.99
2023-10-30T08:22:44.717Z,99.99
2023-10-30T08:23:44.708Z,99.99
2023-10-30T08:24:44.753Z,99.99
2023-10-30T08:25:44.747Z,99.99
2023-10-30T08:26:44.681Z,99.99
2023-10-30T08:27:44.728Z,99.99
2023-10-30T08:28:44.688Z,99.99
2023-10-30T08:29:44.645Z,99.99
2023-10-30T08:30:44.682Z,99.99
2023-10-30T08:31:44.713Z,99.99
2023-10-30T08:32:44.689Z,99.99
2023-10-30T08:33:44.643Z,99.99
2023-10-30T08:34:44.612Z,99.99
2023-10-30T08:35:44.581Z,99.99
2023-10-30T08:36:44.674Z,99.99
2023-10-30T08:37:44.597Z,99.99
2023-10-30T08:38:44.566Z,99.99
2023-10-30T08:39:52.212Z,99.99
2023-10-30T08:40:45.243Z,99.99
2023-10-30T08:41:44.521Z,99.99
2023-10-30T08:42:45.252Z,99.99
2023-10-30T08:43:44.517Z,99.99
2023-10-30T08:44:44.504Z,99.99
2023-10-30T08:45:44.544Z,99.99
2023-10-30T08:46:44.501Z,99.99
2023-10-30T08:47:44.479Z,99.99
2023-10-30T08:48:44.493Z,99.99
2023-10-30T08:49:44.432Z,99.99
2023-10-30T08:50:44.457Z,99.99
2023-10-30T08:51:53.743Z,99.99
2023-10-30T08:52:44.401Z,99.99
2023-10-30T08:53:44.422Z,99.99
2023-10-30T08:54:44.458Z,99.99
2023-10-30T08:55:44.393Z,99.99
2023-10-30T08:56:44.354Z,99.99
2023-10-30T08:57:44.410Z,99.99
2023-10-30T08:58:44.334Z,99.99
2023-10-30T08:59:44.348Z,99.99
2023-10-30T09:00:44.349Z,99.99
2023-10-30T09:01:44.304Z,99.99
2023-10-30T09:02:44.327Z,99.99
2023-10-30T09:03:44.524Z,99.99
2023-10-30T09:04:44.506Z,99.99
2023-10-30T09:05:44.543Z,99.99
2023-10-30T09:06:44.298Z,99.99
2023-10-30T09:07:44.247Z,99.99
2023-10-30T09:08:44.225Z,99.99
2023-10-30T09:09:44.292Z,99.99
2023-10-30T09:10:44.196Z,99.99
2023-10-30T09:11:44.206Z,99.99
2023-10-30T09:12:44.196Z,99.99
2023-10-30T09:13:44.196Z,99.13
2023-10-30T09:14:44.157Z,99.44
2023-10-30T09:15:44.249Z,99.33
2023-10-30T09:16:44.197Z,99.99
2023-10-30T09:17:44.171Z,99.80
2023-10-30T09:18:44.151Z,98.58
2023-10-30T09:19:44.106Z,99.60
2023-10-30T09:20:44.140Z,99.39
2023-10-30T09:21:44.116Z,98.18
2023-10-30T09:22:44.068Z,97.20
2023-10-30T09:23:44.113Z,96.80
2023-10-30T09:24:44.095Z,97.96
2023-10-30T09:25:44.064Z,97.76
2023-10-30T09:26:44.039Z,98.37
2023-10-30T09:27:44.094Z,98.47
2023-10-30T09:28:44.010Z,99.28
2023-10-30T09:29:44.020Z,98.52
2023-10-30T09:30:44.030Z,98.73
2023-10-30T09:31:43.998Z,97.71
2023-10-30T09:32:44.018Z,98.68
2023-10-30T09:33:44.006Z,98.32
2023-10-30T09:34:43.948Z,98.83
2023-10-30T09:35:43.929Z,98.48
2023-10-30T09:36:43.934Z,99.35
2023-10-30T09:37:43.909Z,95.65
2023-10-30T09:38:43.908Z,96.77
2023-10-30T09:39:43.936Z,96.71
2023-10-30T09:40:43.881Z,96.71
2023-10-30T09:41:43.871Z,97.11
2023-10-30T09:42:43.951Z,97.52
2023-10-30T09:43:43.844Z,97.92
2023-10-30T09:44:43.841Z,97.32
2023-10-30T09:45:43.975Z,96.91
2023-10-30T09:46:43.841Z,96.81
2023-10-30T09:47:43.843Z,97.11
2023-10-30T09:48:43.831Z,95.90
2023-10-30T09:49:43.813Z,96.51
2023-10-30T09:50:43.776Z,96.71
2023-10-30T09:51:43.956Z,96.91
2023-10-30T09:52:43.759Z,95.29
2023-10-30T09:53:43.765Z,95.19
2023-10-30T09:54:43.800Z,94.89
2023-10-30T09:55:43.752Z,96.20
2023-10-30T09:56:43.712Z,95.95
2023-10-30T09:57:43.751Z,95.10
2023-10-30T09:58:43.748Z,92.83
2023-10-30T09:59:43.726Z,92.79
2023-10-30T10:00:43.759Z,93.15
2023-10-30T10:01:43.896Z,91.28
2023-10-30T10:02:43.868Z,90.07
2023-10-30T10:03:43.857Z,89.46
2023-10-30T10:04:43.683Z,89.66
2023-10-30T10:05:43.686Z,89.20
2023-10-30T10:06:43.687Z,90.72
2023-10-30T10:07:43.676Z,89.85
2023-10-30T10:08:43.623Z,89.85
2023-10-30T10:09:43.645Z,89.75
2023-10-30T10:10:43.579Z,89.99
2023-10-30T10:11:43.591Z,90.76
2023-10-30T10:12:43.713Z,91.16
2023-10-30T10:13:54.314Z,91.77
2023-10-30T10:14:43.565Z,91.20
2023-10-30T10:15:43.621Z,89.69
2023-10-30T10:16:43.562Z,90.34
2023-10-30T10:17:43.578Z,91.75
2023-10-30T10:18:43.509Z,92.41
2023-10-30T10:19:43.484Z,92.47
2023-10-30T10:20:43.491Z,92.26
2023-10-30T10:21:43.518Z,89.47
2023-10-30T10:22:43.461Z,89.98
2023-10-30T10:23:43.488Z,89.57
2023-10-30T10:24:43.517Z,90.69
2023-10-30T10:25:43.462Z,89.57
2023-10-30T10:26:43.408Z,90.79
2023-10-30T10:27:43.507Z,91.15
2023-10-30T10:28:43.443Z,91.05
2023-10-30T10:29:43.411Z,88.42
2023-10-30T10:30:43.431Z,88.82
2023-10-30T10:31:43.378Z,89.83
2023-10-30T10:32:43.374Z,92.12
2023-10-30T10:33:45.096Z,87.97
2023-10-30T10:34:43.478Z,88.13
2023-10-30T10:35:43.337Z,85.60
2023-10-30T10:36:45.991Z,86.25
2023-10-30T10:37:43.337Z,87.46
2023-10-30T10:38:43.296Z,88.68
2023-10-30T10:39:43.372Z,88.98
2023-10-30T10:40:45.659Z,88.31
2023-10-30T10:41:43.298Z,87.91
2023-10-30T10:42:43.275Z,88.72
2023-10-30T10:43:43.277Z,88.31
2023-10-30T10:44:43.282Z,90.03
2023-10-30T10:45:43.286Z,89.23
2023-10-30T10:46:43.272Z,90.03
2023-10-30T10:47:43.245Z,89.79
2023-10-30T10:48:43.252Z,86.39
2023-10-30T10:49:43.189Z,88.27
2023-10-30T10:50:43.182Z,88.17
2023-10-30T10:51:43.204Z,86.15
2023-10-30T10:52:43.151Z,87.05
2023-10-30T10:53:43.178Z,86.51
2023-10-30T10:54:43.232Z,86.27
2023-10-30T10:55:43.145Z,85.46
2023-10-30T10:56:43.134Z,85.31
2023-10-30T10:57:43.216Z,83.70
2023-10-30T10:58:43.111Z,84.91
2023-10-30T10:59:43.091Z,82.62
2023-10-30T11:00:43.125Z,82.42
2023-10-30T11:01:43.121Z,82.83
2023-10-30T11:02:43.108Z,82.49
2023-10-30T11:03:43.150Z,84.11
2023-10-30T11:04:43.061Z,85.02
2023-10-30T11:05:43.027Z,84.11
2023-10-30T11:06:43.073Z,81.27
2023-10-30T11:07:43.018Z,84.51
2023-10-30T11:08:43.025Z,84.11
2023-10-30T11:09:43.147Z,84.55
2023-10-30T11:10:43.002Z,81.82
2023-10-30T11:11:43.008Z,82.93
2023-10-30T11:12:42.971Z,85.16
2023-10-30T11:13:42.945Z,86.27
2023-10-30T11:14:42.946Z,83.64
2023-10-30T11:15:44.364Z,86.07
2023-10-30T11:16:43.006Z,86.77
2023-10-30T11:17:42.947Z,84.95
2023-10-30T11:18:42.920Z,86.27
2023-10-30T11:19:42.904Z,85.56
2023-10-30T11:20:42.895Z,87.38
2023-10-30T11:21:42.943Z,86.27
2023-10-30T11:22:42.880Z,87.18
2023-10-30T11:23:42.888Z,84.65
2023-10-30T11:24:42.853Z,84.14
2023-10-30T11:25:42.832Z,84.95
2023-10-30T11:26:42.828Z,83.44
2023-10-30T11:27:42.873Z,84.14
2023-10-30T11:28:42.820Z,84.04
2023-10-30T11:29:42.776Z,83.94
2023-10-30T11:30:42.829Z,85.36
2023-10-30T11:31:42.860Z,84.75
2023-10-30T11:32:42.817Z,84.14
2023-10-30T11:33:43.894Z,81.51
2023-10-30T11:34:42.758Z,81.41
2023-10-30T11:35:42.737Z,80.80
2023-10-30T11:36:42.779Z,82.02
2023-10-30T11:37:42.712Z,81.82
2023-10-30T11:38:42.694Z,81.68
2023-10-30T11:39:42.768Z,82.28
2023-10-30T11:40:42.656Z,81.23
2023-10-30T11:41:42.656Z,79.46
2023-10-30T11:42:42.663Z,81.48
2023-10-30T11:43:42.648Z,81.48
2023-10-30T11:44:42.625Z,82.28
2023-10-30T11:45:42.770Z,80.87
2023-10-30T11:46:42.649Z,81.51
2023-10-30T11:47:42.612Z,81.51
2023-10-30T11:48:42.620Z,84.14
2023-10-30T11:49:42.595Z,82.73
2023-10-30T11:50:42.572Z,81.31
2023-10-30T11:51:42.643Z,82.32
2023-10-30T11:52:42.538Z,81.41
2023-10-30T11:53:42.520Z,82.93
2023-10-30T11:54:42.557Z,80.80
2023-10-30T11:55:42.536Z,81.51
2023-10-30T11:56:42.527Z,80.77
2023-10-30T11:57:42.531Z,81.48
2023-10-30T11:58:42.473Z,80.97
2023-10-30T11:59:42.469Z,82.28
2023-10-30T12:00:42.512Z,81.82
2023-10-30T12:01:42.498Z,81.62
2023-10-30T12:02:42.495Z,82.39
2023-10-30T12:03:42.495Z,83.09
2023-10-30T12:04:42.536Z,82.18
2023-10-30T12:05:42.441Z,79.15
2023-10-30T12:06:42.419Z,80.83
2023-10-30T12:07:42.409Z,79.05
2023-10-30T12:08:42.404Z,80.87
2023-10-30T12:09:42.425Z,80.77
2023-10-30T12:10:42.386Z,80.97
2023-10-30T12:11:42.383Z,80.77
2023-10-30T12:12:42.385Z,81.37
2023-10-30T12:13:42.321Z,80.87
2023-10-30T12:14:42.331Z,80.97
2023-10-30T12:15:42.389Z,79.86
2023-10-30T12:16:42.342Z,81.98
2023-10-30T12:17:42.368Z,80.77
2023-10-30T12:18:42.379Z,79.75
2023-10-30T12:19:42.261Z,79.86
2023-10-30T12:20:42.274Z,80.77
2023-10-30T12:21:42.283Z,81.98
2023-10-30T12:22:42.231Z,80.06
2023-10-30T12:23:42.218Z,81.48
2023-10-30T12:24:42.228Z,80.46
2023-10-30T12:25:42.229Z,79.86
2023-10-30T12:26:42.179Z,80.87
2023-10-30T12:27:42.237Z,79.66
2023-10-30T12:28:42.184Z,81.48
2023-10-30T12:29:42.215Z,78.64
2023-10-30T12:30:42.183Z,80.57
2023-10-30T12:31:42.195Z,79.66
2023-10-30T12:32:42.179Z,80.06
2023-10-30T12:33:42.255Z,80.00
2023-10-30T12:34:42.101Z,79.90
2023-10-30T12:35:42.133Z,80.80
2023-10-30T12:36:42.145Z,80.20
2023-10-30T12:37:42.053Z,81.31
2023-10-30T12:38:42.109Z,81.51
2023-10-30T12:39:42.092Z,82.42
2023-10-30T12:40:42.056Z,82.02
2023-10-30T12:41:42.080Z,81.62
2023-10-30T12:42:42.091Z,80.60
2023-10-30T12:43:42.003Z,81.82
2023-10-30T12:44:42.006Z,81.11
2023-10-30T12:45:42.039Z,81.21
2023-10-30T12:46:42.014Z,80.40
2023-10-30T12:47:42.186Z,79.59
2023-10-30T12:48:42.025Z,80.80
2023-10-30T12:49:41.988Z,81.82
2023-10-30T12:50:42.068Z,81.71
2023-10-30T12:51:41.976Z,82.02
2023-10-30T12:52:41.944Z,81.92